Time;durP1;ratioP1;P1;durP2;ratioP2;P2;SDS_P1;SDS_P2;PMS_P1;PMS_P2;Temp;Humidity;BMP_temperature;BMP_pressure;BME280_temperature;BME280_humidity;BME280_pressure;Samples;Min_cycle;Max_cycle;Signal;HPM_P1;HPM_P2
2020/12/10 00:01:43;;;;;;;12.63;8.43;;;6.70;99.90;;;;;;5133081;27;20050;-52
2020/12/10 00:04:48;;;;;;;25.20;12.60;;;6.80;99.90;;;;;;5133963;27;20038;-52
2020/12/10 00:07:52;;;;;;;20.15;12.73;;;6.40;99.90;;;;;;5133631;27;20041;-54
2020/12/10 00:10:57;;;;;;;18.75;13.70;;;6.30;99.90;;;;;;5132945;27;20042;-53
2020/12/10 00:14:03;;;;;;;35.03;21.40;;;6.40;99.90;;;;;;5111995;27;20038;-54
2020/12/10 00:17:07;;;;;;;19.20;12.45;;;6.50;99.90;;;;;;5131814;27;20054;-54
2020/12/10 00:20:30;;;;;;;18.23;11.15;;;6.50;99.90;;;;;;5111973;28;20034;-53
2020/12/10 00:23:35;;;;;;;16.65;10.88;;;6.50;99.90;;;;;;5112433;28;20039;-53
2020/12/10 00:26:41;;;;;;;15.00;10.80;;;6.60;99.90;;;;;;5112647;28;20046;-52
2020/12/10 00:29:46;;;;;;;14.32;10.45;;;6.60;99.90;;;;;;5112120;28;20042;-54
2020/12/10 00:32:51;;;;;;;16.60;11.07;;;6.60;99.90;;;;;;5112081;28;20417;-52
2020/12/10 00:35:55;;;;;;;14.20;10.45;;;6.60;99.90;;;;;;5114034;27;20031;-54
2020/12/10 00:38:59;;;;;;;18.60;12.15;;;6.50;99.90;;;;;;5112279;28;20058;-55
2020/12/10 00:42:04;;;;;;;20.40;14.23;;;6.50;99.90;;;;;;5111570;28;20046;-56
2020/12/10 00:45:09;;;;;;;33.50;25.15;;;6.50;99.90;;;;;;5110842;28;20410;-52
2020/12/10 00:48:13;;;;;;;30.60;19.63;;;6.50;99.90;;;;;;5111911;28;20059;-50
2020/12/10 00:51:18;;;;;;;23.38;17.10;;;6.50;99.90;;;;;;5110422;28;20046;-55
2020/12/10 00:54:22;;;;;;;23.30;16.15;;;6.50;99.90;;;;;;5111662;28;20406;-52
2020/12/10 00:57:26;;;;;;;17.60;10.05;;;6.50;99.90;;;;;;5110960;28;20038;-54
2020/12/10 01:00:30;;;;;;;16.55;11.07;;;6.50;99.90;;;;;;5110937;28;20055;-57
2020/12/10 01:03:34;;;;;;;17.80;13.13;;;6.60;99.90;;;;;;5111726;28;20050;-52
2020/12/10 01:06:39;;;;;;;27.52;18.92;;;6.60;99.90;;;;;;5111615;28;20051;-53
2020/12/10 01:09:43;;;;;;;674.45;56.55;;;6.60;99.90;;;;;;5110666;28;20058;-56
2020/12/10 01:12:47;;;;;;;1375.45;106.50;;;6.30;99.90;;;;;;5128708;27;20062;-52
2020/12/10 01:15:54;;;;;;;600.65;58.00;;;6.10;99.90;;;;;;5126206;27;20035;-55
2020/12/10 01:18:58;;;;;;;142.82;27.58;;;6.10;99.90;;;;;;5132071;27;20042;-52
2020/12/10 01:22:02;;;;;;;995.40;77.68;;;6.10;99.90;;;;;;5131488;27;20397;-52
2020/12/10 01:25:07;;;;;;;156.20;29.13;;;6.10;99.90;;;;;;5118534;27;20050;-52
2020/12/10 01:28:11;;;;;;;211.85;33.90;;;6.20;99.90;;;;;;5131719;27;20425;-54
2020/12/10 01:31:15;;;;;;;100.72;26.33;;;6.20;99.90;;;;;;5130834;27;20046;-54
2020/12/10 01:34:20;;;;;;;165.15;32.40;;;6.30;99.90;;;;;;5131598;27;20046;-52
2020/12/10 01:37:24;;;;;;;53.40;25.95;;;6.40;99.90;;;;;;5131653;27;20053;-52
2020/12/10 01:40:28;;;;;;;32.35;20.92;;;6.40;99.90;;;;;;5118131;27;20031;-54
2020/12/10 01:43:32;;;;;;;30.85;19.58;;;6.50;99.90;;;;;;5131328;27;20413;-52
2020/12/10 01:46:37;;;;;;;28.42;17.55;;;6.50;99.90;;;;;;5131294;27;20287;-53
2020/12/10 01:49:43;;;;;;;21.63;15.23;;;6.50;99.90;;;;;;5131396;27;20418;-52
2020/12/10 01:52:52;;;;;;;23.10;15.73;;;6.60;99.90;;;;;;5130623;27;20054;-51
2020/12/10 01:55:58;;;;;;;34.08;19.20;;;6.60;99.90;;;;;;5131306;27;20042;-54
2020/12/10 01:59:04;;;;;;;149.15;25.95;;;6.70;99.90;;;;;;5116807;27;20034;-52
2020/12/10 02:02:08;;;;;;;54.17;23.13;;;6.50;99.90;;;;;;5130477;27;20413;-51
2020/12/10 02:05:12;;;;;;;120.07;26.88;;;6.50;99.90;;;;;;5131313;27;20058;-56
2020/12/10 02:08:16;;;;;;;37.92;22.08;;;6.40;99.90;;;;;;5131534;27;20263;-55
2020/12/10 02:11:24;;;;;;;36.28;21.90;;;6.40;99.90;;;;;;5130521;27;20528;-56
2020/12/10 02:14:33;;;;;;;31.40;20.95;;;6.40;99.90;;;;;;5131354;27;20042;-52
2020/12/10 02:17:37;;;;;;;32.28;20.48;;;6.40;99.90;;;;;;5131120;27;20050;-58
2020/12/10 02:20:42;;;;;;;37.50;22.80;;;6.50;99.90;;;;;;5131524;27;20046;-55
2020/12/10 02:23:51;;;;;;;55.67;23.00;;;6.50;99.90;;;;;;5130903;27;20042;-58
2020/12/10 02:26:58;;;;;;;53.45;23.88;;;6.50;99.90;;;;;;5118780;27;20050;-55
2020/12/10 02:30:21;;;;;;;37.42;19.05;;;6.50;99.90;;;;;;5117909;27;20042;-57
2020/12/10 02:33:25;;;;;;;34.63;20.27;;;6.50;99.90;;;;;;5129938;27;20042;-57
2020/12/10 02:36:30;;;;;;;33.72;20.80;;;6.60;99.90;;;;;;5127331;27;20042;-58
2020/12/10 02:39:34;;;;;;;45.17;21.92;;;6.60;99.90;;;;;;5117780;27;20046;-57
2020/12/10 02:42:38;;;;;;;37.25;21.48;;;6.60;99.90;;;;;;5109527;27;20402;-57
2020/12/10 02:45:42;;;;;;;44.35;24.02;;;6.60;99.90;;;;;;5110110;28;20043;-58
2020/12/10 02:48:47;;;;;;;40.35;22.67;;;6.60;99.90;;;;;;5109863;28;20038;-57
2020/12/10 02:51:51;;;;;;;48.35;26.63;;;6.60;99.90;;;;;;5113185;27;20263;-57
2020/12/10 02:54:55;;;;;;;54.30;27.58;;;6.70;99.90;;;;;;5115116;28;20039;-57
2020/12/10 02:57:59;;;;;;;76.20;26.08;;;6.70;99.90;;;;;;5110147;28;20046;-57
2020/12/10 03:01:07;;;;;;;53.22;27.88;;;6.70;99.90;;;;;;5109558;28;20042;-58
2020/12/10 03:04:12;;;;;;;49.38;25.63;;;6.70;99.90;;;;;;5109548;28;20043;-58
2020/12/10 03:07:16;;;;;;;47.45;24.70;;;6.80;99.90;;;;;;5109651;28;20051;-55
2020/12/10 03:10:20;;;;;;;49.25;26.75;;;6.80;99.90;;;;;;5118167;28;20057;-57
2020/12/10 03:13:25;;;;;;;48.05;24.63;;;6.80;99.90;;;;;;5122135;28;20429;-58
2020/12/10 03:16:29;;;;;;;52.90;25.67;;;6.80;99.90;;;;;;5111301;28;20394;-55
2020/12/10 03:19:33;;;;;;;59.97;27.02;;;6.80;99.90;;;;;;5109342;28;20039;-52
2020/12/10 03:22:38;;;;;;;46.28;24.25;;;6.80;99.90;;;;;;5109062;28;20046;-57
2020/12/10 03:25:43;;;;;;;49.45;26.48;;;6.80;99.90;;;;;;5109608;28;20050;-58
2020/12/10 03:28:47;;;;;;;45.95;25.08;;;6.80;99.90;;;;;;5109467;28;20402;-57
2020/12/10 03:31:51;;;;;;;48.22;24.98;;;6.90;99.90;;;;;;5108869;28;20043;-57
2020/12/10 03:34:54;;;;;;;54.53;28.77;;;6.90;99.90;;;;;;5109264;28;20055;-52
2020/12/10 03:38:00;;;;;;;44.83;25.17;;;6.90;99.90;;;;;;5109426;28;20046;-56
2020/12/10 03:41:07;;;;;;;50.97;25.95;;;6.90;99.90;;;;;;5108965;28;20042;-57
2020/12/10 03:44:12;;;;;;;56.33;29.73;;;6.90;99.90;;;;;;5122255;28;20625;-56
2020/12/10 03:47:16;;;;;;;53.00;26.90;;;6.90;99.90;;;;;;5119054;28;20047;-58
2020/12/10 03:50:20;;;;;;;103.35;31.65;;;6.80;99.90;;;;;;5109300;28;20429;-54
2020/12/10 03:53:24;;;;;;;63.67;28.00;;;6.80;99.90;;;;;;5109229;28;20030;-55
2020/12/10 03:56:30;;;;;;;431.45;42.08;;;6.70;99.90;;;;;;5113006;28;20038;-55
2020/12/10 03:59:35;;;;;;;185.55;32.45;;;6.70;99.90;;;;;;5112743;28;20055;-56
2020/12/10 04:02:39;;;;;;;259.55;37.20;;;6.50;99.90;;;;;;5112618;28;20129;-58
2020/12/10 04:05:43;;;;;;;199.70;33.88;;;6.40;99.90;;;;;;5112929;28;20409;-57
2020/12/10 04:08:48;;;;;;;565.85;53.85;;;6.40;99.90;;;;;;5112215;28;20509;-55
2020/12/10 04:11:52;;;;;;;528.58;51.45;;;6.50;99.90;;;;;;5112122;28;20055;-56
2020/12/10 04:14:57;;;;;;;247.63;38.10;;;6.50;99.90;;;;;;5111944;28;20058;-57
2020/12/10 04:18:01;;;;;;;158.02;34.13;;;6.50;99.90;;;;;;5112830;28;20050;-57
2020/12/10 04:21:06;;;;;;;69.90;31.65;;;6.50;99.90;;;;;;5112332;28;20062;-58
2020/12/10 04:24:10;;;;;;;63.45;29.92;;;6.50;99.90;;;;;;5126595;27;20038;-52
2020/12/10 04:27:14;;;;;;;47.10;26.00;;;6.50;99.90;;;;;;5111875;28;20031;-55
2020/12/10 04:30:21;;;;;;;43.75;25.42;;;6.60;99.90;;;;;;5122411;27;20042;-57
2020/12/10 04:33:24;;;;;;;57.08;30.45;;;6.70;99.90;;;;;;5111948;28;20051;-56
2020/12/10 04:36:29;;;;;;;51.63;26.70;;;6.60;99.90;;;;;;5113920;27;20038;-54
2020/12/10 04:39:33;;;;;;;41.72;24.42;;;6.60;99.90;;;;;;5112111;28;20046;-53
2020/12/10 04:42:40;;;;;;;47.63;25.00;;;6.60;99.90;;;;;;5125127;27;20051;-53
2020/12/10 04:45:45;;;;;;;44.00;21.85;;;6.60;99.90;;;;;;5111771;28;20422;-57
2020/12/10 04:48:50;;;;;;;40.47;23.35;;;6.60;99.90;;;;;;5111987;28;20058;-57
2020/12/10 04:51:56;;;;;;;54.35;24.25;;;6.60;99.90;;;;;;5111765;28;20042;-54
2020/12/10 04:55:00;;;;;;;43.83;20.67;;;6.60;99.90;;;;;;5111378;28;20561;-54
2020/12/10 04:58:05;;;;;;;42.58;23.35;;;6.60;99.90;;;;;;5111794;28;20059;-56
2020/12/10 05:01:10;;;;;;;41.65;22.77;;;6.60;99.90;;;;;;5111774;28;20406;-58
2020/12/10 05:04:14;;;;;;;47.53;24.27;;;6.60;99.90;;;;;;5111177;28;20038;-57
2020/12/10 05:07:20;;;;;;;35.20;19.42;;;6.60;99.90;;;;;;5111764;28;20051;-58
2020/12/10 05:10:25;;;;;;;37.08;20.40;;;6.60;99.90;;;;;;5111137;28;20046;-53
2020/12/10 05:13:30;;;;;;;48.33;22.38;;;6.60;99.90;;;;;;5114553;27;20504;-57
2020/12/10 05:16:34;;;;;;;49.25;23.95;;;6.60;99.90;;;;;;5111712;28;20042;-57
2020/12/10 05:19:38;;;;;;;46.97;23.83;;;6.50;99.90;;;;;;5122714;27;20042;-56
2020/12/10 05:22:45;;;;;;;36.30;20.00;;;6.50;99.90;;;;;;5117638;27;20042;-56
2020/12/10 05:25:52;;;;;;;33.13;18.00;;;6.60;99.90;;;;;;5110744;28;20042;-52
2020/12/10 05:28:57;;;;;;;31.92;17.25;;;6.60;99.90;;;;;;5110868;28;20043;-58
2020/12/10 05:32:01;;;;;;;30.15;15.32;;;6.70;99.90;;;;;;5117282;27;20046;-55
2020/12/10 05:35:22;;;;;;;32.13;16.02;;;6.70;99.90;;;;;;5119242;27;20047;-56
2020/12/10 05:38:27;;;;;;;31.02;16.10;;;6.70;99.90;;;;;;5111299;28;20062;-52
2020/12/10 05:41:37;;;;;;;32.40;15.45;;;6.70;99.90;;;;;;5110714;28;20050;-53
2020/12/10 05:44:42;;;;;;;1999.90;260.58;;;6.70;99.90;;;;;;5124504;27;20508;-56
2020/12/10 05:47:46;;;;;;;547.85;78.30;;;6.80;99.90;;;;;;5110692;28;20406;-57
2020/12/10 05:50:50;;;;;;;18.77;11.38;;;6.90;99.90;;;;;;5110904;28;20049;-56
2020/12/10 05:53:59;;;;;;;18.88;11.68;;;7.00;99.90;;;;;;5111111;27;20066;-54
2020/12/10 05:57:05;;;;;;;25.40;13.27;;;6.90;99.90;;;;;;5116480;27;20039;-52
2020/12/10 06:00:13;;;;;;;21.98;13.02;;;6.80;99.90;;;;;;5117721;27;20042;-53
2020/12/10 06:03:20;;;;;;;22.40;13.00;;;6.80;99.90;;;;;;5109839;28;20050;-53
2020/12/10 06:06:28;;;;;;;244.02;27.35;;;6.80;99.90;;;;;;5114888;27;20050;-55
2020/12/10 06:09:33;;;;;;;1999.90;244.77;;;6.80;99.90;;;;;;5110831;27;20054;-55
2020/12/10 06:12:37;;;;;;;951.65;84.95;;;6.70;99.90;;;;;;5108480;28;20031;-52
2020/12/10 06:15:41;;;;;;;542.65;53.72;;;6.60;99.90;;;;;;5110953;27;20406;-55
2020/12/10 06:19:03;;;;;;;593.88;58.28;;;6.60;99.90;;;;;;5110070;28;20042;-56
2020/12/10 06:22:28;;;;;;;207.00;30.75;;;6.60;99.90;;;;;;5119999;27;20050;-58
2020/12/10 06:25:32;;;;;;;208.85;35.63;;;6.60;99.90;;;;;;5118054;27;20038;-55
2020/12/10 06:28:36;;;;;;;50.83;23.85;;;6.60;99.90;;;;;;5122527;27;20038;-55
2020/12/10 06:32:29;;;;;;;43.47;23.90;;;6.60;99.90;;;;;;5113099;27;20046;-58
2020/12/10 06:35:35;;;;;;;;;;;6.70;99.90;;;;;;5117232;27;20043;-56
2020/12/10 06:38:42;;;;;;;32.00;18.08;;;6.70;99.90;;;;;;5117177;27;19915;-58
2020/12/10 06:41:59;;;;;;;27.92;16.48;;;6.80;99.90;;;;;;5112379;27;20050;-56
2020/12/10 06:45:03;;;;;;;46.22;17.90;;;6.80;99.90;;;;;;5123242;27;20050;-54
2020/12/10 06:48:10;;;;;;;32.15;15.25;;;6.80;99.90;;;;;;5114201;27;20049;-56
2020/12/10 06:51:20;;;;;;;23.48;14.50;;;6.90;99.90;;;;;;5114732;27;20050;-57
2020/12/10 06:54:24;;;;;;;19.75;12.75;;;6.90;99.90;;;;;;5108557;28;20046;-54
2020/12/10 06:57:53;;;;;;;19.65;11.88;;;6.90;99.90;;;;;;5118595;28;20042;-56
2020/12/10 07:00:57;;;;;;;15.02;6.70;;;6.90;99.90;;;;;;5125223;28;20042;-55
2020/12/10 07:04:22;;;;;;;12.15;7.80;;;6.90;99.90;;;;;;5115050;28;20042;-57
2020/12/10 07:07:29;;;;;;;8.50;4.82;;;6.90;99.90;;;;;;5120852;28;20426;-56
2020/12/10 07:10:42;;;;;;;6.93;2.75;;;6.90;99.90;;;;;;5126570;28;20098;-56
2020/12/10 07:13:46;;;;;;;5.57;3.50;;;6.90;99.90;;;;;;5124664;28;20043;-53
2020/12/10 07:16:50;;;;;;;5.70;2.55;;;6.90;99.90;;;;;;5124235;28;20035;-55
2020/12/10 07:20:04;;;;;;;9.05;5.40;;;6.90;99.90;;;;;;5117759;28;20489;-56
2020/12/10 07:23:08;;;;;;;9.77;5.90;;;6.90;99.90;;;;;;5123996;28;20039;-56
2020/12/10 07:26:12;;;;;;;1.08;0.90;;;6.90;99.90;;;;;;5122926;28;20043;-57
2020/12/10 07:29:16;;;;;;;2.67;0.73;;;7.00;99.90;;;;;;5119484;27;20039;-54
2020/12/10 07:32:20;;;;;;;1.45;0.80;;;7.10;99.90;;;;;;5113527;27;20040;-53
2020/12/10 07:35:31;;;;;;;3.97;0.85;;;7.10;99.90;;;;;;5112551;28;20501;-57
2020/12/10 07:38:35;;;;;;;2.05;0.90;;;7.10;99.90;;;;;;5119646;27;20040;-55
2020/12/10 07:41:40;;;;;;;2.22;1.60;;;7.00;99.90;;;;;;5119638;27;20035;-58
2020/12/10 07:44:44;;;;;;;1.90;1.10;;;7.10;99.90;;;;;;5117229;27;20035;-54
2020/12/10 07:47:55;;;;;;;2.50;1.08;;;7.10;99.90;;;;;;5115243;27;20032;-57
2020/12/10 07:51:00;;;;;;;1.83;1.50;;;7.20;99.90;;;;;;5111701;27;20036;-57
2020/12/10 07:54:04;;;;;;;3.15;1.95;;;7.30;99.90;;;;;;5117207;27;20035;-56
2020/12/10 07:57:23;;;;;;;3.58;1.92;;;7.40;99.90;;;;;;5111065;27;20036;-58
2020/12/10 08:00:29;;;;;;;2.30;1.45;;;7.50;99.90;;;;;;5112745;27;20035;-54
2020/12/10 08:03:37;;;;;;;3.88;1.33;;;7.60;99.90;;;;;;5112494;28;20039;-57
2020/12/10 08:06:44;;;;;;;2.65;1.30;;;7.50;99.90;;;;;;5111170;28;20035;-56
2020/12/10 08:09:50;;;;;;;3.72;1.30;;;7.50;99.90;;;;;;5112305;28;20027;-57
2020/12/10 08:13:11;;;;;;;4.55;1.60;;;7.50;99.90;;;;;;5114383;27;20043;-52
2020/12/10 08:16:15;;;;;;;4.93;1.92;;;7.50;99.90;;;;;;5119002;27;20375;-55
2020/12/10 08:19:27;;;;;;;3.33;1.75;;;7.50;99.90;;;;;;5113887;27;20035;-57
2020/12/10 08:22:31;;;;;;;5.38;2.85;;;7.50;99.90;;;;;;5113004;27;20043;-56
2020/12/10 08:25:35;;;;;;;8.88;3.33;;;7.50;99.90;;;;;;5112585;28;20043;-57
2020/12/10 08:28:50;;;;;;;6.80;3.20;;;7.40;99.90;;;;;;5112140;28;20047;-57
2020/12/10 08:32:09;;;;;;;7.85;3.55;;;7.40;99.90;;;;;;5114606;27;20040;-58
2020/12/10 08:35:13;;;;;;;5.47;2.70;;;7.40;99.90;;;;;;5116990;27;20306;-57
2020/12/10 08:38:23;;;;;;;7.97;3.35;;;7.40;99.90;;;;;;5116126;27;20036;-58
2020/12/10 08:41:49;;;;;;;5.28;2.67;;;7.40;99.90;;;;;;5119625;27;20481;-58
2020/12/10 08:44:54;;;;;;;5.90;2.95;;;7.40;99.90;;;;;;5118387;27;20036;-57
2020/12/10 08:48:04;;;;;;;7.60;3.53;;;7.40;99.90;;;;;;5111021;27;20031;-58
2020/12/10 08:51:09;;;;;;;5.43;2.70;;;7.50;99.90;;;;;;5109480;27;20040;-56
2020/12/10 08:54:16;;;;;;;8.05;3.20;;;7.50;99.90;;;;;;5113815;27;20044;-54
2020/12/10 08:57:20;;;;;;;9.85;2.85;;;7.50;99.90;;;;;;5109612;28;20040;-58
2020/12/10 09:00:26;;;;;;;7.18;3.05;;;7.60;99.90;;;;;;5113033;27;20043;-58
2020/12/10 09:03:31;;;;;;;4.90;2.50;;;7.60;99.90;;;;;;5109581;27;20039;-57
2020/12/10 09:06:36;;;;;;;6.43;2.70;;;7.70;99.90;;;;;;5116427;27;20479;-58
2020/12/10 09:09:41;;;;;;;8.57;3.22;;;7.70;99.90;;;;;;5114804;27;20039;-52
2020/12/10 09:12:45;;;;;;;7.22;2.88;;;7.80;99.90;;;;;;5112048;27;20035;-56
2020/12/10 09:16:06;;;;;;;6.55;2.45;;;7.80;99.90;;;;;;5115384;27;20044;-58
2020/12/10 09:19:12;;;;;;;10.35;2.45;;;7.80;99.90;;;;;;5111876;27;20048;-56
2020/12/10 09:22:17;;;;;;;8.02;2.25;;;7.80;99.90;;;;;;5110768;27;20042;-58
2020/12/10 09:25:22;;;;;;;4.65;1.75;;;7.90;99.90;;;;;;5111522;27;20044;-56
2020/12/10 09:28:28;;;;;;;6.00;3.33;;;7.90;99.90;;;;;;5109388;27;20047;-57
2020/12/10 09:31:33;;;;;;;4.78;2.28;;;8.00;99.90;;;;;;5110749;28;20043;-57
2020/12/10 09:34:42;;;;;;;4.63;2.97;;;8.10;99.90;;;;;;5110411;28;20040;-58
2020/12/10 09:37:46;;;;;;;6.13;2.00;;;8.10;99.90;;;;;;5109226;28;20067;-58
2020/12/10 09:40:53;;;;;;;3.85;2.10;;;8.10;99.90;;;;;;5120985;27;20370;-58
2020/12/10 09:43:56;;;;;;;7.72;2.50;;;8.20;99.90;;;;;;5121215;27;20055;-58
2020/12/10 09:47:06;;;;;;;5.53;2.40;;;8.20;99.90;;;;;;5116084;27;20044;-58
2020/12/10 09:50:19;;;;;;;6.50;2.90;;;8.20;99.90;;;;;;5109100;28;20043;-54
2020/12/10 09:53:32;;;;;;;10.52;3.85;;;8.20;99.90;;;;;;5110149;27;20028;-56
2020/12/10 09:56:58;;;;;;;5.72;3.13;;;8.30;99.90;;;;;;5109683;27;20031;-58
2020/12/10 10:00:09;;;;;;;5.00;2.58;;;8.40;99.90;;;;;;5109612;28;20359;-58
2020/12/10 10:03:20;;;;;;;11.32;6.53;;;8.30;99.90;;;;;;5109546;28;20044;-56
2020/12/10 10:06:24;;;;;;;8.35;5.13;;;8.40;99.90;;;;;;5111244;27;20043;-55
2020/12/10 10:09:31;;;;;;;5.60;2.45;;;8.50;99.90;;;;;;5113269;27;20032;-53
2020/12/10 10:12:55;;;;;;;8.65;2.97;;;8.40;99.90;;;;;;5118006;27;20031;-57
2020/12/10 10:16:02;;;;;;;;;;;8.60;99.90;;;;;;5120200;27;20023;-56
2020/12/10 10:19:06;;;;;;;7.40;3.38;;;8.80;99.90;;;;;;5114134;27;19923;-57
2020/12/10 10:22:12;;;;;;;6.35;3.35;;;8.90;99.90;;;;;;5120870;27;20051;-55
2020/12/10 10:25:18;;;;;;;7.50;4.00;;;9.00;99.90;;;;;;5121717;27;20051;-58
2020/12/10 10:28:24;;;;;;;4.28;1.95;;;9.10;99.90;;;;;;5114507;27;20044;-57
2020/12/10 10:31:44;;;;;;;9.85;5.82;;;9.20;99.90;;;;;;5115938;27;20425;-56
2020/12/10 10:34:49;;;;;;;11.63;6.88;;;9.30;99.90;;;;;;5114760;27;20485;-58
2020/12/10 10:37:57;;;;;;;3.25;1.33;;;9.60;99.90;;;;;;5114012;27;20046;-54
2020/12/10 10:41:02;;;;;;;4.80;2.90;;;9.90;99.90;;;;;;5113506;27;20035;-58
2020/12/10 10:44:07;;;;;;;3.03;1.42;;;10.40;99.90;;;;;;5119586;27;20485;-54
2020/12/10 10:47:11;;;;;;;6.70;1.00;;;10.80;99.90;;;;;;5115305;27;20046;-58
2020/12/10 10:50:36;;;;;;;2.42;1.30;;;11.10;99.90;;;;;;5110996;28;20402;-56
2020/12/10 10:53:40;;;;;;;3.13;1.42;;;11.10;99.90;;;;;;5111254;28;20047;-57
2020/12/10 10:56:46;;;;;;;3.95;1.77;;;10.50;99.90;;;;;;5119701;27;20405;-57
2020/12/10 11:00:10;;;;;;;3.88;1.50;;;10.30;99.90;;;;;;5111580;28;20038;-57
2020/12/10 11:03:28;;;;;;;7.03;4.88;;;10.00;99.90;;;;;;5116691;28;20046;-55
2020/12/10 11:06:33;;;;;;;5.25;1.38;;;9.90;99.90;;;;;;5114500;28;20587;-56
2020/12/10 11:09:41;;;;;;;8.13;5.28;;;10.00;99.90;;;;;;5122188;28;20035;-55
2020/12/10 11:12:47;;;;;;;4.25;1.50;;;10.10;99.90;;;;;;5118987;28;20038;-55
2020/12/10 11:16:02;;;;;;;4.35;2.55;;;9.90;99.90;;;;;;5116111;28;20042;-56
2020/12/10 11:19:30;;;;;;;9.15;5.07;;;9.70;99.90;;;;;;5121797;28;20027;-54
2020/12/10 11:22:38;;;;;;;4.72;2.80;;;9.70;99.90;;;;;;5112766;28;20040;-56
2020/12/10 11:26:03;;;;;;;4.82;1.92;;;9.60;99.90;;;;;;5113876;28;20035;-52
2020/12/10 11:29:29;;;;;;;12.80;6.07;;;9.60;99.90;;;;;;5111129;28;20043;-55
2020/12/10 11:32:36;;;;;;;4.40;1.92;;;10.40;99.90;;;;;;5113767;28;20548;-56
2020/12/10 11:35:40;;;;;;;3.28;1.90;;;11.10;99.90;;;;;;5111115;28;20066;-54
2020/12/10 11:38:44;;;;;;;5.47;3.30;;;12.00;99.90;;;;;;5111255;28;20035;-56
2020/12/10 11:41:51;;;;;;;9.30;6.07;;;13.20;99.90;;;;;;5107553;28;20055;-52
2020/12/10 11:45:00;;;;;;;6.25;2.83;;;13.00;99.90;;;;;;5110924;28;20054;-51
2020/12/10 11:48:06;;;;;;;2.20;1.23;;;12.40;99.90;;;;;;5107765;28;20406;-54
2020/12/10 11:51:10;;;;;;;4.13;1.95;;;11.80;99.90;;;;;;5108880;28;20405;-53
2020/12/10 11:54:14;;;;;;;2.58;1.20;;;11.40;99.90;;;;;;5108821;28;20051;-55
2020/12/10 11:57:18;;;;;;;1.15;0.82;;;10.70;99.90;;;;;;5108977;28;20039;-51
2020/12/10 12:00:24;;;;;;;2.90;1.05;;;11.00;99.90;;;;;;5116730;28;20038;-53
2020/12/10 12:03:28;;;;;;;1.70;1.08;;;11.00;99.90;;;;;;5111439;28;20050;-56
2020/12/10 12:06:32;;;;;;;3.35;1.08;;;10.00;99.90;;;;;;5109281;28;20038;-53
2020/12/10 12:09:36;;;;;;;2.47;1.00;;;10.00;99.90;;;;;;5108361;28;20043;-56
2020/12/10 12:12:44;;;;;;;3.33;1.33;;;9.90;99.90;;;;;;5107473;28;20534;-56
2020/12/10 12:15:55;;;;;;;;;;;9.40;99.90;;;;;;5116133;27;20040;-56
2020/12/10 12:18:59;;;;;;;1.80;1.50;;;9.00;99.90;;;;;;5113204;27;19915;-54
2020/12/10 12:22:20;;;;;;;3.90;1.50;;;8.80;99.90;;;;;;5113361;27;20478;-54
2020/12/10 12:25:25;;;;;;;3.30;1.77;;;8.80;99.90;;;;;;5110954;27;20024;-51
2020/12/10 12:28:29;;;;;;;3.00;1.70;;;8.60;99.90;;;;;;5111864;27;20371;-52
2020/12/10 12:31:38;;;;;;;5.35;2.15;;;8.50;99.90;;;;;;5110503;27;20032;-54
2020/12/10 12:34:47;;;;;;;6.47;2.08;;;8.40;99.90;;;;;;5114221;27;20039;-56
2020/12/10 12:37:51;;;;;;;6.53;1.85;;;8.30;99.90;;;;;;5113088;27;20403;-57
2020/12/10 12:40:55;;;;;;;5.22;3.20;;;8.30;99.90;;;;;;5108702;27;20036;-52
2020/12/10 12:44:00;;;;;;;7.10;3.00;;;8.20;99.90;;;;;;5118691;27;20043;-52
2020/12/10 12:47:08;;;;;;;5.07;2.40;;;8.20;99.90;;;;;;5113357;27;20047;-56
2020/12/10 12:50:14;;;;;;;5.65;2.97;;;8.20;99.90;;;;;;5113430;27;20036;-57
2020/12/10 12:53:27;;;;;;;6.10;2.45;;;8.10;99.90;;;;;;5110785;27;20406;-53
2020/12/10 12:56:38;;;;;;;7.55;2.58;;;8.30;99.90;;;;;;5111734;27;20027;-52
2020/12/10 12:59:42;;;;;;;3.40;1.98;;;8.30;99.90;;;;;;5110296;28;20044;-54
2020/12/10 13:02:46;;;;;;;7.18;5.90;;;8.40;99.90;;;;;;5111215;28;20036;-54
2020/12/10 13:05:50;;;;;;;3.13;1.50;;;8.50;99.90;;;;;;5110353;27;20039;-58
2020/12/10 13:08:54;;;;;;;7.55;4.60;;;8.50;99.90;;;;;;5113260;27;20035;-55
2020/12/10 13:12:02;;;;;;;4.30;2.95;;;8.50;99.90;;;;;;5109953;28;20378;-53
2020/12/10 13:15:06;;;;;;;5.35;2.42;;;8.50;99.90;;;;;;5111520;27;20048;-56
2020/12/10 13:18:49;;;;;;;5.78;2.63;;;8.50;99.90;;;;;;5110723;28;20032;-57
2020/12/10 13:22:13;;;;;;;5.43;2.90;;;8.50;99.90;;;;;;5109038;27;20035;-57
2020/12/10 13:25:19;;;;;;;11.43;7.68;;;8.30;99.90;;;;;;5109944;27;20027;-55
2020/12/10 13:28:36;;;;;;;7.20;3.35;;;8.30;99.90;;;;;;5115614;27;20042;-57
2020/12/10 13:31:40;;;;;;;19.48;11.73;;;8.20;99.90;;;;;;5109662;27;20043;-53
2020/12/10 13:34:45;;;;;;;6.85;4.85;;;8.20;99.90;;;;;;5117187;27;20746;-53
2020/12/10 13:37:49;;;;;;;29.70;15.88;;;8.10;99.90;;;;;;5116418;27;20036;-51
2020/12/10 13:40:53;;;;;;;9.25;5.47;;;8.10;99.90;;;;;;5110067;28;20042;-53
2020/12/10 13:44:29;;;;;;;5.28;2.65;;;8.10;99.90;;;;;;5112363;27;20040;-53
2020/12/10 13:47:37;;;;;;;9.82;4.18;;;8.00;99.90;;;;;;5123916;27;20047;-53
2020/12/10 13:50:41;;;;;;;5.70;3.63;;;8.00;99.90;;;;;;5121524;27;20453;-54
2020/12/10 13:54:32;;;;;;;5.35;3.53;;;8.00;99.90;;;;;;5118752;27;20046;-55
2020/12/10 13:57:51;;;;;;;4.43;2.10;;;8.10;99.90;;;;;;5111821;27;20040;-56
2020/12/10 14:01:15;;;;;;;7.13;2.92;;;8.20;99.90;;;;;;5109283;28;20527;-53
2020/12/10 14:04:20;;;;;;;7.45;3.67;;;8.30;99.90;;;;;;5114110;27;20055;-55
2020/12/10 14:07:25;;;;;;;14.98;9.02;;;8.40;99.90;;;;;;5119259;27;20043;-52
2020/12/10 14:10:29;;;;;;;8.30;4.57;;;8.50;99.90;;;;;;5117259;27;20055;-52
2020/12/10 14:13:33;;;;;;;9.02;4.65;;;8.50;99.90;;;;;;5123467;27;20031;-53
2020/12/10 14:16:38;;;;;;;7.85;4.22;;;8.50;99.90;;;;;;5124582;27;20035;-53
2020/12/10 14:20:04;;;;;;;8.27;4.15;;;8.50;99.90;;;;;;5122768;27;20031;-56
2020/12/10 14:23:08;;;;;;;6.20;3.90;;;8.50;99.90;;;;;;5124161;27;20035;-52
2020/12/10 14:26:11;;;;;;;7.10;4.35;;;8.50;99.90;;;;;;5126520;27;20510;-56
2020/12/10 14:29:17;;;;;;;11.40;5.82;;;8.50;99.90;;;;;;5110969;27;20035;-51
2020/12/10 14:32:49;;;;;;;14.32;8.52;;;8.50;99.90;;;;;;5116275;27;20065;-53
2020/12/10 14:35:53;;;;;;;13.10;5.68;;;8.50;99.90;;;;;;5111606;27;20046;-55
2020/12/10 14:39:01;;;;;;;5.05;3.42;;;8.60;99.90;;;;;;5114990;27;20047;-55
2020/12/10 14:42:27;;;;;;;4.57;2.63;;;8.60;99.90;;;;;;5109465;28;20390;-56
2020/12/10 14:45:31;;;;;;;2.80;1.92;;;8.70;99.90;;;;;;5111066;27;20039;-57
2020/12/10 14:48:35;;;;;;;4.40;2.60;;;8.70;99.90;;;;;;5110620;28;20040;-56
2020/12/10 14:51:40;;;;;;;6.38;2.92;;;8.60;99.90;;;;;;5109750;28;20028;-53
2020/12/10 14:54:48;;;;;;;8.43;4.80;;;8.50;99.90;;;;;;5109835;28;20047;-56
2020/12/10 14:57:52;;;;;;;11.40;6.72;;;8.50;99.90;;;;;;5109479;28;20051;-53
2020/12/10 15:01:27;;;;;;;8.63;4.35;;;8.40;99.90;;;;;;5109044;28;20038;-57
2020/12/10 15:04:31;;;;;;;7.70;4.63;;;8.40;99.90;;;;;;5112928;28;20035;-56
2020/12/10 15:07:55;;;;;;;5.00;3.60;;;8.30;99.90;;;;;;5109594;28;20391;-56
2020/12/10 15:11:00;;;;;;;9.43;5.30;;;8.20;99.90;;;;;;5109673;28;20032;-57
2020/12/10 15:14:04;;;;;;;8.20;3.80;;;8.10;99.90;;;;;;5120449;28;20039;-57
2020/12/10 15:17:29;;;;;;;6.60;4.75;;;8.00;99.90;;;;;;5109862;28;20039;-57
2020/12/10 15:20:36;;;;;;;6.40;4.22;;;7.80;99.90;;;;;;5109496;28;20043;-56
2020/12/10 15:23:41;;;;;;;9.85;6.60;;;7.80;99.90;;;;;;5108772;28;20043;-57
2020/12/10 15:26:54;;;;;;;25.50;15.30;;;7.80;99.90;;;;;;5109694;28;20050;-57
2020/12/10 15:29:58;;;;;;;12.77;9.38;;;7.70;99.90;;;;;;5108871;28;20398;-56
2020/12/10 15:33:02;;;;;;;5.72;3.90;;;7.70;99.90;;;;;;5108516;28;20410;-56
2020/12/10 15:36:07;;;;;;;17.88;11.25;;;7.70;99.90;;;;;;5109237;28;20490;-54
2020/12/10 15:39:16;;;;;;;15.35;8.90;;;7.70;99.90;;;;;;5110301;28;20058;-57
2020/12/10 15:42:24;;;;;;;11.13;6.22;;;7.60;99.90;;;;;;5118731;28;20108;-58
2020/12/10 15:46:13;;;;;;;6.93;4.35;;;7.70;99.90;;;;;;5116719;28;20042;-57
2020/12/10 15:49:17;;;;;;;11.73;7.75;;;7.50;99.90;;;;;;5110495;28;20044;-57
2020/12/10 15:52:31;;;;;;;9.63;7.05;;;7.40;99.90;;;;;;5123891;27;20051;-57
2020/12/10 15:55:38;;;;;;;11.23;5.63;;;7.40;99.90;;;;;;5126302;27;20027;-55
2020/12/10 15:58:42;;;;;;;9.57;6.63;;;7.50;99.90;;;;;;5117280;27;20039;-57
2020/12/10 16:01:48;;;;;;;10.35;6.90;;;7.50;99.90;;;;;;5119029;27;20726;-57
2020/12/10 16:04:52;;;;;;;13.77;8.73;;;7.50;99.90;;;;;;5120464;27;20038;-56
2020/12/10 16:08:17;;;;;;;14.30;10.20;;;7.60;99.90;;;;;;5129142;27;20058;-56
2020/12/10 16:11:21;;;;;;;17.15;9.80;;;7.60;99.90;;;;;;5117258;27;20074;-55
2020/12/10 16:14:35;;;;;;;16.02;10.27;;;7.60;99.90;;;;;;5126331;27;20501;-54
2020/12/10 16:17:56;;;;;;;14.10;8.68;;;7.60;99.90;;;;;;5113561;27;20043;-57